AXM110 HESH-HECA
Flight info
| Callsign | AXM110 |
|---|---|
| Flight time | 0h 44m |
| Altitude | 24000 |
| Route | DCT SHM L677 CVO DCT |
| Aircraft | A333/H-V/N |
Departure
| Time | 2026-05-06 13:57 |
|---|---|
| Airport | Sharm El Sheikh International Airport (HESH) |
Arrival
| Time | 2026-05-06 14:41 |
|---|---|
| Airport | Cairo International Airport (HECA) |
| Time | Latitude | Longitude | Altitude | Speed | Heading |
|---|---|---|---|---|---|
| 2026-05-06 13:38 | 27.98148 | 34.39214 | 196 ft | 0 kts | 312° |
| 2026-05-06 13:48 | 27.98139 | 34.39224 | 195 ft | 3 kts | 312° |
| 2026-05-06 13:48 | 27.98127 | 34.39239 | 194 ft | 1 kts | 311° |
| 2026-05-06 13:49 | 27.98120 | 34.39249 | 193 ft | 1 kts | 304° |
| 2026-05-06 13:49 | 27.98115 | 34.39257 | 193 ft | 2 kts | 290° |
| 2026-05-06 13:49 | 27.98113 | 34.39267 | 192 ft | 1 kts | 275° |
| 2026-05-06 13:49 | 27.98112 | 34.39276 | 192 ft | 1 kts | 260° |
| 2026-05-06 13:50 | 27.98114 | 34.39284 | 191 ft | 1 kts | 246° |
| 2026-05-06 13:50 | 27.98117 | 34.39292 | 191 ft | 1 kts | 232° |
| 2026-05-06 13:50 | 27.98122 | 34.39299 | 191 ft | 0 kts | 224° |
| 2026-05-06 13:50 | 27.98125 | 34.39302 | 191 ft | 0 kts | 222° |
| 2026-05-06 13:52 | 27.98118 | 34.39295 | 191 ft | 3 kts | 225° |
| 2026-05-06 13:52 | 27.98093 | 34.39264 | 192 ft | 7 kts | 227° |
| 2026-05-06 13:52 | 27.98047 | 34.39208 | 192 ft | 12 kts | 225° |
| 2026-05-06 13:52 | 27.97973 | 34.39130 | 194 ft | 16 kts | 222° |
| 2026-05-06 13:53 | 27.97874 | 34.39028 | 196 ft | 21 kts | 222° |
| 2026-05-06 13:53 | 27.97748 | 34.38897 | 195 ft | 27 kts | 222° |
| 2026-05-06 13:53 | 27.97596 | 34.38739 | 193 ft | 32 kts | 223° |
| 2026-05-06 13:53 | 27.97490 | 34.38629 | 192 ft | 16 kts | 223° |
| 2026-05-06 13:54 | 27.97395 | 34.38530 | 192 ft | 20 kts | 223° |
| 2026-05-06 13:54 | 27.97283 | 34.38413 | 193 ft | 23 kts | 223° |
| 2026-05-06 13:54 | 27.97154 | 34.38278 | 193 ft | 27 kts | 223° |
| 2026-05-06 13:54 | 27.97027 | 34.38148 | 190 ft | 17 kts | 214° |
| 2026-05-06 13:55 | 27.96910 | 34.38206 | 180 ft | 13 kts | 133° |
| 2026-05-06 13:55 | 27.96832 | 34.38301 | 176 ft | 19 kts | 133° |
| 2026-05-06 13:55 | 27.96723 | 34.38434 | 167 ft | 27 kts | 132° |
| 2026-05-06 13:55 | 27.96628 | 34.38554 | 157 ft | 5 kts | 131° |
| 2026-05-06 13:56 | 27.96613 | 34.38611 | 155 ft | 10 kts | 72° |
| 2026-05-06 13:56 | 27.96659 | 34.38694 | 155 ft | 13 kts | 47° |
| 2026-05-06 13:56 | 27.96778 | 34.38817 | 160 ft | 47 kts | 41° |
| 2026-05-06 13:56 | 27.97197 | 34.39252 | 170 ft | 114 kts | 43° |
| 2026-05-06 13:57 | 27.97933 | 34.40018 | 166 ft | 169 kts | 42° |
| 2026-05-06 13:57 | 27.98860 | 34.40940 | 575 ft | 185 kts | 36° |
| 2026-05-06 13:57 | 28.00026 | 34.41613 | 1220 ft | 193 kts | 13° |
| 2026-05-06 13:57 | 28.01296 | 34.41629 | 2155 ft | 183 kts | 344° |
| 2026-05-06 13:58 | 28.02371 | 34.40935 | 2942 ft | 189 kts | 319° |
| 2026-05-06 13:58 | 28.03246 | 34.39790 | 3879 ft | 200 kts | 303° |
| 2026-05-06 13:58 | 28.03859 | 34.38496 | 5047 ft | 178 kts | 296° |
| 2026-05-06 13:58 | 28.04464 | 34.37361 | 5540 ft | 172 kts | 300° |
| 2026-05-06 13:59 | 28.04960 | 34.36115 | 5913 ft | 176 kts | 293° |
| 2026-05-06 13:59 | 28.05393 | 34.34809 | 6299 ft | 178 kts | 292° |
| 2026-05-06 13:59 | 28.05862 | 34.33520 | 6708 ft | 178 kts | 296° |
| 2026-05-06 13:59 | 28.06508 | 34.32303 | 7085 ft | 181 kts | 301° |
| 2026-05-06 14:00 | 28.07228 | 34.31129 | 7471 ft | 183 kts | 306° |
| 2026-05-06 14:00 | 28.08017 | 34.29944 | 7684 ft | 196 kts | 307° |
| 2026-05-06 14:00 | 28.08890 | 34.28684 | 7884 ft | 210 kts | 307° |
| 2026-05-06 14:00 | 28.09834 | 34.27347 | 8080 ft | 224 kts | 308° |
| 2026-05-06 14:01 | 28.10838 | 34.25937 | 8210 ft | 243 kts | 307° |
| 2026-05-06 14:01 | 28.11954 | 34.24372 | 8449 ft | 262 kts | 308° |
| 2026-05-06 14:01 | 28.13129 | 34.22729 | 8836 ft | 279 kts | 308° |
| 2026-05-06 14:01 | 28.14366 | 34.20999 | 9560 ft | 282 kts | 307° |
| 2026-05-06 14:02 | 28.15593 | 34.19280 | 10261 ft | 285 kts | 307° |
| 2026-05-06 14:02 | 28.16861 | 34.17502 | 10648 ft | 300 kts | 307° |
| 2026-05-06 14:02 | 28.18207 | 34.15614 | 10928 ft | 318 kts | 307° |
| 2026-05-06 14:02 | 28.19655 | 34.13584 | 11168 ft | 337 kts | 307° |
| 2026-05-06 14:03 | 28.21129 | 34.11519 | 11690 ft | 344 kts | 307° |
| 2026-05-06 14:03 | 28.22650 | 34.09383 | 12360 ft | 347 kts | 307° |
| 2026-05-06 14:03 | 28.24155 | 34.07270 | 12997 ft | 349 kts | 307° |
| 2026-05-06 14:03 | 28.25691 | 34.05112 | 13646 ft | 351 kts | 307° |
| 2026-05-06 14:04 | 28.27222 | 34.02958 | 14277 ft | 353 kts | 307° |
| 2026-05-06 14:04 | 28.28774 | 34.00778 | 14853 ft | 356 kts | 307° |
| 2026-05-06 14:04 | 28.30335 | 33.98581 | 15381 ft | 361 kts | 307° |
| 2026-05-06 14:04 | 28.31908 | 33.96372 | 15952 ft | 363 kts | 307° |
| 2026-05-06 14:05 | 28.33491 | 33.94141 | 16537 ft | 365 kts | 307° |
| 2026-05-06 14:05 | 28.35087 | 33.91892 | 17061 ft | 368 kts | 307° |
| 2026-05-06 14:05 | 28.36693 | 33.89628 | 17577 ft | 372 kts | 307° |
| 2026-05-06 14:05 | 28.38312 | 33.87345 | 18160 ft | 373 kts | 307° |
| 2026-05-06 14:06 | 28.39947 | 33.85038 | 18662 ft | 377 kts | 307° |
| 2026-05-06 14:06 | 28.41592 | 33.82715 | 19180 ft | 380 kts | 307° |
| 2026-05-06 14:06 | 28.43245 | 33.80378 | 19675 ft | 383 kts | 307° |
| 2026-05-06 14:06 | 28.44914 | 33.78019 | 20205 ft | 385 kts | 307° |
| 2026-05-06 14:07 | 28.46588 | 33.75651 | 20736 ft | 386 kts | 306° |
| 2026-05-06 14:07 | 28.48275 | 33.73262 | 21205 ft | 389 kts | 306° |
| 2026-05-06 14:07 | 28.49974 | 33.70858 | 21671 ft | 392 kts | 306° |
| 2026-05-06 14:07 | 28.51675 | 33.68445 | 22161 ft | 394 kts | 306° |
| 2026-05-06 14:08 | 28.53390 | 33.66014 | 22601 ft | 397 kts | 306° |
| 2026-05-06 14:08 | 28.55119 | 33.63561 | 23077 ft | 398 kts | 306° |
| 2026-05-06 14:08 | 28.56857 | 33.61092 | 23624 ft | 398 kts | 306° |
| 2026-05-06 14:08 | 28.58587 | 33.58637 | 24076 ft | 399 kts | 306° |
| 2026-05-06 14:09 | 28.60317 | 33.56174 | 23936 ft | 399 kts | 305° |
| 2026-05-06 14:09 | 28.61917 | 33.53653 | 24000 ft | 390 kts | 302° |
| 2026-05-06 14:09 | 28.63493 | 33.51113 | 24018 ft | 393 kts | 302° |
| 2026-05-06 14:09 | 28.65048 | 33.48595 | 23987 ft | 392 kts | 302° |
| 2026-05-06 14:10 | 28.66610 | 33.46063 | 23999 ft | 392 kts | 302° |
| 2026-05-06 14:10 | 28.68174 | 33.43522 | 23999 ft | 393 kts | 302° |
| 2026-05-06 14:10 | 28.69746 | 33.40967 | 23997 ft | 394 kts | 302° |
| 2026-05-06 14:10 | 28.71332 | 33.38390 | 23988 ft | 393 kts | 302° |
| 2026-05-06 14:11 | 28.72890 | 33.35856 | 23986 ft | 393 kts | 302° |
| 2026-05-06 14:11 | 28.74465 | 33.33289 | 23991 ft | 392 kts | 302° |
| 2026-05-06 14:11 | 28.76025 | 33.30748 | 23988 ft | 393 kts | 302° |
| 2026-05-06 14:11 | 28.77604 | 33.28176 | 23976 ft | 392 kts | 302° |
| 2026-05-06 14:12 | 28.79174 | 33.25614 | 23972 ft | 392 kts | 302° |
| 2026-05-06 14:12 | 28.80735 | 33.23068 | 23962 ft | 392 kts | 302° |
| 2026-05-06 14:12 | 28.82288 | 33.20531 | 23966 ft | 392 kts | 302° |
| 2026-05-06 14:12 | 28.83835 | 33.18004 | 23958 ft | 393 kts | 302° |
| 2026-05-06 14:13 | 28.85410 | 33.15428 | 23956 ft | 393 kts | 302° |
| 2026-05-06 14:13 | 28.86961 | 33.12891 | 23962 ft | 393 kts | 302° |
| 2026-05-06 14:13 | 28.88521 | 33.10339 | 23950 ft | 392 kts | 302° |
| 2026-05-06 14:13 | 28.90083 | 33.07778 | 23954 ft | 392 kts | 302° |
| 2026-05-06 14:14 | 28.91641 | 33.05226 | 23953 ft | 392 kts | 302° |
| 2026-05-06 14:14 | 28.93197 | 33.02673 | 23948 ft | 393 kts | 302° |
| 2026-05-06 14:14 | 28.94757 | 33.00115 | 23953 ft | 393 kts | 302° |
| 2026-05-06 14:14 | 28.96313 | 32.97560 | 23946 ft | 393 kts | 302° |
| 2026-05-06 14:15 | 28.97862 | 32.95016 | 23947 ft | 391 kts | 302° |
| 2026-05-06 14:15 | 28.99419 | 32.92455 | 23944 ft | 391 kts | 302° |
| 2026-05-06 14:15 | 29.00968 | 32.89908 | 23949 ft | 391 kts | 302° |
| 2026-05-06 14:15 | 29.02512 | 32.87365 | 23950 ft | 391 kts | 302° |
| 2026-05-06 14:16 | 29.04063 | 32.84811 | 23953 ft | 391 kts | 302° |
| 2026-05-06 14:16 | 29.05612 | 32.82260 | 23957 ft | 392 kts | 302° |
| 2026-05-06 14:16 | 29.07166 | 32.79697 | 23950 ft | 392 kts | 302° |
| 2026-05-06 14:16 | 29.08722 | 32.77131 | 23952 ft | 393 kts | 302° |
| 2026-05-06 14:17 | 29.10254 | 32.74600 | 23952 ft | 392 kts | 302° |
| 2026-05-06 14:17 | 29.11813 | 32.72024 | 23956 ft | 391 kts | 302° |
| 2026-05-06 14:17 | 29.13371 | 32.69449 | 23961 ft | 392 kts | 302° |
| 2026-05-06 14:17 | 29.14922 | 32.66884 | 23958 ft | 391 kts | 302° |
| 2026-05-06 14:18 | 29.16460 | 32.64338 | 23960 ft | 390 kts | 302° |
| 2026-05-06 14:18 | 29.18007 | 32.61775 | 23976 ft | 391 kts | 302° |
| 2026-05-06 14:18 | 29.19549 | 32.59221 | 23980 ft | 391 kts | 302° |
| 2026-05-06 14:18 | 29.21088 | 32.56669 | 23979 ft | 391 kts | 302° |
| 2026-05-06 14:19 | 29.22632 | 32.54108 | 23987 ft | 391 kts | 302° |
| 2026-05-06 14:19 | 29.24172 | 32.51552 | 23986 ft | 391 kts | 302° |
| 2026-05-06 14:19 | 29.25716 | 32.48986 | 23991 ft | 391 kts | 302° |
| 2026-05-06 14:19 | 29.27249 | 32.46438 | 23902 ft | 392 kts | 302° |
| 2026-05-06 14:20 | 29.28798 | 32.43860 | 22935 ft | 401 kts | 302° |
| 2026-05-06 14:20 | 29.30394 | 32.41204 | 22243 ft | 399 kts | 302° |
| 2026-05-06 14:20 | 29.31953 | 32.38609 | 21705 ft | 395 kts | 302° |
| 2026-05-06 14:20 | 29.33494 | 32.36040 | 21156 ft | 391 kts | 303° |
| 2026-05-06 14:21 | 29.35011 | 32.33512 | 20652 ft | 386 kts | 302° |
| 2026-05-06 14:21 | 29.36518 | 32.30998 | 20164 ft | 381 kts | 302° |
| 2026-05-06 14:21 | 29.38019 | 32.28493 | 19684 ft | 376 kts | 302° |
| 2026-05-06 14:21 | 29.39468 | 32.26071 | 19227 ft | 370 kts | 302° |
| 2026-05-06 14:22 | 29.40912 | 32.23658 | 18776 ft | 365 kts | 302° |
| 2026-05-06 14:22 | 29.42355 | 32.21246 | 18318 ft | 360 kts | 302° |
| 2026-05-06 14:22 | 29.43754 | 32.18904 | 17867 ft | 355 kts | 302° |
| 2026-05-06 14:22 | 29.45128 | 32.16604 | 17429 ft | 351 kts | 302° |
| 2026-05-06 14:23 | 29.46512 | 32.14283 | 16983 ft | 346 kts | 303° |
| 2026-05-06 14:23 | 29.47847 | 32.12046 | 16551 ft | 342 kts | 303° |
| 2026-05-06 14:23 | 29.49142 | 32.09777 | 16107 ft | 338 kts | 297° |
| 2026-05-06 14:23 | 29.50171 | 32.07383 | 15666 ft | 334 kts | 295° |
| 2026-05-06 14:24 | 29.51182 | 32.04976 | 15221 ft | 331 kts | 295° |
| 2026-05-06 14:24 | 29.52163 | 32.02638 | 14787 ft | 328 kts | 295° |
| 2026-05-06 14:24 | 29.53161 | 32.00261 | 14342 ft | 326 kts | 295° |
| 2026-05-06 14:24 | 29.54127 | 31.97956 | 13925 ft | 323 kts | 295° |
| 2026-05-06 14:25 | 29.55079 | 31.95679 | 13865 ft | 308 kts | 295° |
| 2026-05-06 14:25 | 29.55991 | 31.93492 | 13852 ft | 294 kts | 295° |
| 2026-05-06 14:25 | 29.56853 | 31.91429 | 13763 ft | 283 kts | 295° |
| 2026-05-06 14:25 | 29.57693 | 31.89405 | 13426 ft | 282 kts | 295° |
| 2026-05-06 14:26 | 29.58527 | 31.87388 | 13082 ft | 281 kts | 295° |
| 2026-05-06 14:26 | 29.59362 | 31.85358 | 12758 ft | 280 kts | 295° |
| 2026-05-06 14:26 | 29.60192 | 31.83335 | 12418 ft | 279 kts | 295° |
| 2026-05-06 14:26 | 29.61016 | 31.81322 | 12089 ft | 277 kts | 295° |
| 2026-05-06 14:27 | 29.61828 | 31.79329 | 11394 ft | 277 kts | 295° |
| 2026-05-06 14:27 | 29.62568 | 31.77306 | 10703 ft | 276 kts | 283° |
| 2026-05-06 14:27 | 29.62783 | 31.75164 | 10469 ft | 258 kts | 275° |
| 2026-05-06 14:27 | 29.62896 | 31.73193 | 10297 ft | 242 kts | 275° |
| 2026-05-06 14:28 | 29.62996 | 31.71331 | 10138 ft | 227 kts | 275° |
| 2026-05-06 14:28 | 29.63088 | 31.69561 | 10043 ft | 213 kts | 275° |
| 2026-05-06 14:28 | 29.63174 | 31.67862 | 9569 ft | 227 kts | 275° |
| 2026-05-06 14:28 | 29.63267 | 31.65964 | 8803 ft | 250 kts | 275° |
| 2026-05-06 14:29 | 29.63358 | 31.63972 | 8574 ft | 247 kts | 275° |
| 2026-05-06 14:29 | 29.63443 | 31.62009 | 8319 ft | 247 kts | 275° |
| 2026-05-06 14:29 | 29.63526 | 31.60047 | 8061 ft | 246 kts | 275° |
| 2026-05-06 14:29 | 29.63605 | 31.58060 | 8023 ft | 244 kts | 275° |
| 2026-05-06 14:30 | 29.63685 | 31.56102 | 8028 ft | 246 kts | 275° |
| 2026-05-06 14:30 | 29.63767 | 31.54139 | 8018 ft | 246 kts | 275° |
| 2026-05-06 14:30 | 29.63938 | 31.52177 | 8003 ft | 245 kts | 289° |
| 2026-05-06 14:30 | 29.64787 | 31.50530 | 8038 ft | 241 kts | 314° |
| 2026-05-06 14:31 | 29.65941 | 31.49140 | 8000 ft | 237 kts | 315° |
| 2026-05-06 14:31 | 29.67104 | 31.47753 | 7727 ft | 238 kts | 315° |
| 2026-05-06 14:31 | 29.68240 | 31.46388 | 7458 ft | 239 kts | 315° |
| 2026-05-06 14:31 | 29.69381 | 31.45002 | 7248 ft | 236 kts | 315° |
| 2026-05-06 14:32 | 29.70513 | 31.43620 | 6978 ft | 236 kts | 315° |
| 2026-05-06 14:32 | 29.71636 | 31.42236 | 6744 ft | 235 kts | 315° |
| 2026-05-06 14:32 | 29.72736 | 31.40871 | 6519 ft | 234 kts | 315° |
| 2026-05-06 14:32 | 29.73844 | 31.39487 | 6291 ft | 233 kts | 315° |
| 2026-05-06 14:33 | 29.74928 | 31.38124 | 6036 ft | 233 kts | 315° |
| 2026-05-06 14:33 | 29.76034 | 31.36738 | 5793 ft | 233 kts | 315° |
| 2026-05-06 14:33 | 29.77175 | 31.35413 | 5534 ft | 231 kts | 327° |
| 2026-05-06 14:33 | 29.78592 | 31.34521 | 5261 ft | 229 kts | 335° |
| 2026-05-06 14:34 | 29.80021 | 31.33706 | 5064 ft | 227 kts | 335° |
| 2026-05-06 14:34 | 29.81407 | 31.32921 | 4841 ft | 227 kts | 335° |
| 2026-05-06 14:34 | 29.82834 | 31.32114 | 4644 ft | 225 kts | 335° |
| 2026-05-06 14:34 | 29.84228 | 31.31329 | 4425 ft | 224 kts | 335° |
| 2026-05-06 14:35 | 29.85642 | 31.30532 | 4183 ft | 224 kts | 335° |
| 2026-05-06 14:35 | 29.87042 | 31.29746 | 3962 ft | 223 kts | 335° |
| 2026-05-06 14:35 | 29.88441 | 31.28957 | 3751 ft | 222 kts | 335° |
| 2026-05-06 14:35 | 29.89857 | 31.28158 | 3519 ft | 222 kts | 335° |
| 2026-05-06 14:36 | 29.91260 | 31.27372 | 3294 ft | 221 kts | 338° |
| 2026-05-06 14:36 | 29.92764 | 31.27109 | 3026 ft | 220 kts | 8° |
| 2026-05-06 14:36 | 29.94272 | 31.27551 | 2795 ft | 220 kts | 15° |
| 2026-05-06 14:36 | 29.95749 | 31.28043 | 2675 ft | 219 kts | 15° |
| 2026-05-06 14:37 | 29.97216 | 31.28532 | 2688 ft | 219 kts | 15° |
| 2026-05-06 14:37 | 29.98697 | 31.29028 | 2677 ft | 219 kts | 15° |
| 2026-05-06 14:37 | 30.00151 | 31.29572 | 2668 ft | 221 kts | 27° |
| 2026-05-06 14:37 | 30.01277 | 31.30774 | 2656 ft | 211 kts | 47° |
| 2026-05-06 14:38 | 30.02202 | 31.31994 | 2544 ft | 193 kts | 45° |
| 2026-05-06 14:38 | 30.03080 | 31.33143 | 2283 ft | 190 kts | 46° |
| 2026-05-06 14:38 | 30.03948 | 31.34290 | 2079 ft | 183 kts | 46° |
| 2026-05-06 14:38 | 30.04751 | 31.35355 | 1860 ft | 173 kts | 46° |
| 2026-05-06 14:39 | 30.05342 | 31.36132 | 1738 ft | 163 kts | 46° |
| 2026-05-06 14:39 | 30.05698 | 31.36604 | 1617 ft | 155 kts | 46° |
| 2026-05-06 14:39 | 30.06376 | 31.37503 | 1392 ft | 145 kts | 45° |
| 2026-05-06 14:39 | 30.07032 | 31.38367 | 1200 ft | 142 kts | 46° |
| 2026-05-06 14:40 | 30.07690 | 31.39239 | 1011 ft | 142 kts | 46° |
| 2026-05-06 14:40 | 30.08342 | 31.40104 | 829 ft | 143 kts | 46° |
| 2026-05-06 14:40 | 30.09007 | 31.40968 | 606 ft | 144 kts | 51° |
| 2026-05-06 14:40 | 30.09670 | 31.41848 | 435 ft | 143 kts | 51° |
| 2026-05-06 14:41 | 30.10253 | 31.42626 | 393 ft | 113 kts | 45° |
| 2026-05-06 14:41 | 30.10646 | 31.43142 | 393 ft | 54 kts | 50° |
| 2026-05-06 14:41 | 30.10858 | 31.43413 | 393 ft | 33 kts | 40° |
| 2026-05-06 14:41 | 30.11054 | 31.43547 | 393 ft | 32 kts | 25° |
| 2026-05-06 14:42 | 30.11207 | 31.43588 | 393 ft | 17 kts | 337° |
| 2026-05-06 14:42 | 30.11244 | 31.43484 | 393 ft | 15 kts | 234° |